PWSweather.com
Personal Weather Stations
Station Observations
KIDNAMPA57
Canyon County Idaho, Nampa, ID 83687

Canyon County IdahoNampa, ID 83687

Lat: 43.587235, Lon: -116.49831979999999

Elevation: 2615

Station Type: Davis Vantage Pro 2

www.rockinglweather.com

High Low Average
Temperature 38.4°F3.6°C 27.9°F-2.3°C 32.9°F0.5°C
Dew Point 31.0°F-0.6°C 22.1°F-5.5°C 27.2°F-2.7°C
Winds 22.0 mph 35.4 kmh 1.0 mph 1.6 kmh 8.0 mph SE12.9 kmh SE
Wind Gusts 24.0 mph38.6 kmh 6.0 mph9.7 kmh 16.0 mph25.7 kmh
Humidity 92% 69% 79%
Pressure 29.91 in1012.9 mb 29.58 in1001.7 mb -
Precipitation 0.00 in0.0 mm - -
Hour Temp Dew Point Humidity Winds Wind Gusts Pressure Precip Precip Rate Daily Precip Total
12:00 AM 28.1°F-2.2°C 26.1°F-3.3°C 92% 6.0 mph SE9.7 kmh SE 12.0 mph19.3 kmh 29.94 in1013.9 mb 0.01 in0.3 mm 0.00 in0.0 mm 0.01 in0.3 mm
12:05 AM 28.1°F-2.2°C 25.8°F-3.4°C 91% 8.0 mph SE12.9 kmh SE 15.0 mph24.1 kmh 29.94 in1013.9 mb 0.01 in0.3 mm 0.00 in0.0 mm 0.01 in0.3 mm
12:10 AM 28.2°F-2.1°C 25.9°F-3.4°C 91% 5.0 mph SE8.0 kmh SE 15.0 mph24.1 kmh 29.93 in1013.5 mb 0.01 in0.3 mm 0.00 in0.0 mm 0.01 in0.3 mm
12:15 AM 28.2°F-2.1°C 25.9°F-3.4°C 91% 8.0 mph SE12.9 kmh SE 15.0 mph24.1 kmh 29.93 in1013.5 mb 0.01 in0.3 mm 0.00 in0.0 mm 0.01 in0.3 mm
12:20 AM 28.3°F-2.1°C 26.0°F-3.3°C 91% 13.0 mph SSE20.9 kmh SSE 16.0 mph25.7 kmh 29.93 in1013.5 mb 0.01 in0.3 mm 0.00 in0.0 mm 0.01 in0.3 mm
12:25 AM 28.4°F-2.0°C 26.1°F-3.3°C 91% 7.0 mph S11.3 kmh S 16.0 mph25.7 kmh 29.93 in1013.5 mb 0.01 in0.3 mm 0.00 in0.0 mm 0.01 in0.3 mm
12:30 AM 28.4°F-2.0°C 26.1°F-3.3°C 91% 9.0 mph SE14.5 kmh SE 18.0 mph29.0 kmh 29.93 in1013.5 mb 0.01 in0.3 mm 0.00 in0.0 mm 0.01 in0.3 mm
12:35 AM 28.4°F-2.0°C 26.1°F-3.3°C 91% 11.0 mph SE17.7 kmh SE 14.0 mph22.5 kmh 29.93 in1013.5 mb 0.00 in0.0 mm 0.00 in0.0 mm 0.01 in0.3 mm
12:40 AM 28.4°F-2.0°C 26.1°F-3.3°C 91% 11.0 mph S17.7 kmh S 15.0 mph24.1 kmh 29.92 in1013.2 mb 0.00 in0.0 mm 0.00 in0.0 mm 0.01 in0.3 mm
12:45 AM 28.4°F-2.0°C 26.1°F-3.3°C 91% 10.0 mph S16.1 kmh S 15.0 mph24.1 kmh 29.92 in1013.2 mb 0.00 in0.0 mm 0.00 in0.0 mm 0.01 in0.3 mm
12:50 AM 28.4°F-2.0°C 26.1°F-3.3°C 91% 10.0 mph SSE16.1 kmh SSE 15.0 mph24.1 kmh 29.92 in1013.2 mb 0.00 in0.0 mm 0.00 in0.0 mm 0.01 in0.3 mm
12:55 AM 28.4°F-2.0°C 26.1°F-3.3°C 91% 3.0 mph S4.8 kmh S 15.0 mph24.1 kmh 29.91 in1012.9 mb 0.00 in0.0 mm 0.00 in0.0 mm 0.01 in0.3 mm
01:00 AM 28.4°F-2.0°C 26.1°F-3.3°C 91% 7.0 mph S11.3 kmh S 15.0 mph24.1 kmh 29.91 in1012.9 mb 0.00 in0.0 mm 0.00 in0.0 mm 0.01 in0.3 mm
01:05 AM 28.4°F-2.0°C 26.1°F-3.3°C 91% 7.0 mph SSE11.3 kmh SSE 11.0 mph17.7 kmh 29.91 in1012.9 mb 0.00 in0.0 mm 0.00 in0.0 mm 0.01 in0.3 mm
01:10 AM 29.2°F-1.6°C 25.3°F-3.7°C 85% 3.0 mph SE4.8 kmh SE 13.0 mph20.9 kmh 29.91 in1012.9 mb 0.00 in0.0 mm 0.00 in0.0 mm 0.01 in0.3 mm
01:15 AM 29.2°F-1.6°C 25.3°F-3.7°C 85% 8.0 mph S12.9 kmh S 16.0 mph25.7 kmh 29.90 in1012.5 mb 0.00 in0.0 mm 0.00 in0.0 mm 0.01 in0.3 mm
01:20 AM 29.4°F-1.4°C 25.2°F-3.8°C 84% 11.0 mph SSE17.7 kmh SSE 13.0 mph20.9 kmh 29.90 in1012.5 mb 0.00 in0.0 mm 0.00 in0.0 mm 0.01 in0.3 mm
01:25 AM 29.4°F-1.4°C 25.2°F-3.8°C 84% 7.0 mph SSW11.3 kmh SSW 13.0 mph20.9 kmh 29.90 in1012.5 mb 0.00 in0.0 mm 0.00 in0.0 mm 0.01 in0.3 mm
01:30 AM 29.3°F-1.5°C 24.8°F-4.0°C 83% 7.0 mph SSE11.3 kmh SSE 13.0 mph20.9 kmh 29.90 in1012.5 mb 0.00 in0.0 mm 0.00 in0.0 mm 0.01 in0.3 mm
01:35 AM 29.4°F-1.4°C 24.9°F-3.9°C 83% 8.0 mph SSE12.9 kmh SSE 13.0 mph20.9 kmh 29.90 in1012.5 mb 0.00 in0.0 mm 0.00 in0.0 mm 0.01 in0.3 mm
01:40 AM 29.5°F-1.4°C 25.0°F-3.9°C 83% 8.0 mph S12.9 kmh S 14.0 mph22.5 kmh 29.90 in1012.5 mb 0.00 in0.0 mm 0.00 in0.0 mm 0.01 in0.3 mm
01:45 AM 29.5°F-1.4°C 25.0°F-3.9°C 83% 5.0 mph S8.0 kmh S 14.0 mph22.5 kmh 29.90 in1012.5 mb 0.00 in0.0 mm 0.00 in0.0 mm 0.01 in0.3 mm
01:50 AM 29.4°F-1.4°C 24.9°F-3.9°C 83% 6.0 mph SSE9.7 kmh SSE 11.0 mph17.7 kmh 29.90 in1012.5 mb 0.00 in0.0 mm 0.00 in0.0 mm 0.01 in0.3 mm
01:55 AM 29.4°F-1.4°C 24.9°F-3.9°C 83% 6.0 mph SSE9.7 kmh SSE 11.0 mph17.7 kmh 29.90 in1012.5 mb 0.00 in0.0 mm 0.00 in0.0 mm 0.01 in0.3 mm
02:00 AM 29.4°F-1.4°C 25.2°F-3.8°C 84% 5.0 mph SSE8.0 kmh SSE 11.0 mph17.7 kmh 29.90 in1012.5 mb 0.00 in0.0 mm 0.00 in0.0 mm 0.01 in0.3 mm
02:05 AM 29.4°F-1.4°C 25.2°F-3.8°C 84% 6.0 mph S9.7 kmh S 9.0 mph14.5 kmh 29.89 in1012.2 mb 0.00 in0.0 mm 0.00 in0.0 mm 0.01 in0.3 mm
02:10 AM 29.4°F-1.4°C 25.2°F-3.8°C 84% 6.0 mph S9.7 kmh S 12.0 mph19.3 kmh 29.90 in1012.5 mb 0.00 in0.0 mm 0.00 in0.0 mm 0.01 in0.3 mm
02:15 AM 29.3°F-1.5°C 24.8°F-4.0°C 83% 3.0 mph S4.8 kmh S 12.0 mph19.3 kmh 29.90 in1012.5 mb 0.00 in0.0 mm 0.00 in0.0 mm 0.01 in0.3 mm
02:20 AM 28.6°F-1.9°C 24.4°F-4.2°C 84% 4.0 mph S6.4 kmh S 7.0 mph11.3 kmh 29.90 in1012.5 mb 0.00 in0.0 mm 0.00 in0.0 mm 0.01 in0.3 mm
02:25 AM 28.2°F-2.1°C 24.0°F-4.4°C 84% 2.0 mph S3.2 kmh S 8.0 mph12.9 kmh 29.90 in1012.5 mb 0.00 in0.0 mm 0.00 in0.0 mm 0.01 in0.3 mm
02:30 AM 28.0°F-2.2°C 24.1°F-4.4°C 85% 6.0 mph S9.7 kmh S 8.0 mph12.9 kmh 29.89 in1012.2 mb 0.00 in0.0 mm 0.00 in0.0 mm 0.01 in0.3 mm
02:35 AM 27.9°F-2.3°C 24.0°F-4.4°C 85% 5.0 mph S8.0 kmh S 7.0 mph11.3 kmh 29.89 in1012.2 mb 0.00 in0.0 mm 0.00 in0.0 mm 0.01 in0.3 mm
02:40 AM 28.0°F-2.2°C 24.4°F-4.2°C 86% 3.0 mph S4.8 kmh S 7.0 mph11.3 kmh 29.89 in1012.2 mb 0.00 in0.0 mm 0.00 in0.0 mm 0.01 in0.3 mm
02:45 AM 28.1°F-2.2°C 24.5°F-4.2°C 86% 3.0 mph SSW4.8 kmh SSW 7.0 mph11.3 kmh 29.89 in1012.2 mb 0.00 in0.0 mm 0.00 in0.0 mm 0.01 in0.3 mm
02:50 AM 28.1°F-2.2°C 24.5°F-4.2°C 86% 3.0 mph S4.8 kmh S 6.0 mph9.7 kmh 29.88 in1011.9 mb 0.00 in0.0 mm 0.00 in0.0 mm 0.01 in0.3 mm
02:55 AM 28.2°F-2.1°C 24.6°F-4.1°C 86% 4.0 mph S6.4 kmh S 6.0 mph9.7 kmh 29.88 in1011.9 mb 0.00 in0.0 mm 0.00 in0.0 mm 0.01 in0.3 mm
03:00 AM 28.4°F-2.0°C 25.0°F-3.9°C 87% 6.0 mph SSE9.7 kmh SSE 10.0 mph16.1 kmh 29.88 in1011.9 mb 0.00 in0.0 mm 0.00 in0.0 mm 0.01 in0.3 mm
03:05 AM 28.9°F-1.7°C 25.3°F-3.7°C 86% 9.0 mph S14.5 kmh S 12.0 mph19.3 kmh 29.88 in1011.9 mb 0.00 in0.0 mm 0.00 in0.0 mm 0.01 in0.3 mm
03:10 AM 29.2°F-1.6°C 25.5°F-3.6°C 86% 5.0 mph SSW8.0 kmh SSW 12.0 mph19.3 kmh 29.87 in1011.5 mb 0.00 in0.0 mm 0.00 in0.0 mm 0.01 in0.3 mm
03:15 AM 29.4°F-1.4°C 25.5°F-3.6°C 85% 7.0 mph SSE11.3 kmh SSE 12.0 mph19.3 kmh 29.87 in1011.5 mb 0.00 in0.0 mm 0.00 in0.0 mm 0.01 in0.3 mm
03:20 AM 29.4°F-1.4°C 25.5°F-3.6°C 85% 6.0 mph SSE9.7 kmh SSE 10.0 mph16.1 kmh 29.87 in1011.5 mb 0.00 in0.0 mm 0.00 in0.0 mm 0.01 in0.3 mm
03:25 AM 29.5°F-1.4°C 25.6°F-3.6°C 85% 8.0 mph S12.9 kmh S 11.0 mph17.7 kmh 29.87 in1011.5 mb 0.00 in0.0 mm 0.00 in0.0 mm 0.01 in0.3 mm
03:30 AM 29.8°F-1.2°C 25.6°F-3.6°C 84% 8.0 mph S12.9 kmh S 11.0 mph17.7 kmh 29.87 in1011.5 mb 0.00 in0.0 mm 0.00 in0.0 mm 0.01 in0.3 mm
03:35 AM 30.1°F-1.1°C 25.6°F-3.6°C 83% 9.0 mph SSE14.5 kmh SSE 12.0 mph19.3 kmh 29.87 in1011.5 mb 0.00 in0.0 mm 0.00 in0.0 mm 0.01 in0.3 mm
03:40 AM 30.2°F-1.0°C 25.7°F-3.5°C 83% 9.0 mph SSE14.5 kmh SSE 12.0 mph19.3 kmh 29.86 in1011.2 mb 0.00 in0.0 mm 0.00 in0.0 mm 0.01 in0.3 mm
03:45 AM 30.3°F-0.9°C 25.5°F-3.6°C 82% 5.0 mph SE8.0 kmh SE 12.0 mph19.3 kmh 29.86 in1011.2 mb 0.00 in0.0 mm 0.00 in0.0 mm 0.01 in0.3 mm
03:50 AM 30.2°F-1.0°C 25.4°F-3.7°C 82% 8.0 mph S12.9 kmh S 11.0 mph17.7 kmh 29.86 in1011.2 mb 0.00 in0.0 mm 0.00 in0.0 mm 0.01 in0.3 mm
03:55 AM 30.2°F-1.0°C 25.4°F-3.7°C 82% 7.0 mph SSE11.3 kmh SSE 12.0 mph19.3 kmh 29.86 in1011.2 mb 0.00 in0.0 mm 0.00 in0.0 mm 0.01 in0.3 mm
04:00 AM 30.2°F-1.0°C 25.4°F-3.7°C 82% 9.0 mph SSE14.5 kmh SSE 12.0 mph19.3 kmh 29.85 in1010.8 mb 0.00 in0.0 mm 0.00 in0.0 mm 0.01 in0.3 mm
04:05 AM 30.2°F-1.0°C 25.1°F-3.8°C 81% 4.0 mph SE6.4 kmh SE 13.0 mph20.9 kmh 29.85 in1010.8 mb 0.00 in0.0 mm 0.00 in0.0 mm 0.01 in0.3 mm
04:10 AM 30.1°F-1.1°C 25.0°F-3.9°C 81% 10.0 mph S16.1 kmh S 13.0 mph20.9 kmh 29.85 in1010.8 mb 0.00 in0.0 mm 0.00 in0.0 mm 0.01 in0.3 mm
04:15 AM 30.1°F-1.1°C 25.0°F-3.9°C 81% 7.0 mph SE11.3 kmh SE 13.0 mph20.9 kmh 29.84 in1010.5 mb 0.00 in0.0 mm 0.00 in0.0 mm 0.01 in0.3 mm
04:20 AM 30.2°F-1.0°C 25.1°F-3.8°C 81% 7.0 mph S11.3 kmh S 11.0 mph17.7 kmh 29.84 in1010.5 mb 0.00 in0.0 mm 0.00 in0.0 mm 0.01 in0.3 mm
04:25 AM 30.3°F-0.9°C 25.2°F-3.8°C 81% 2.0 mph SE3.2 kmh SE 11.0 mph17.7 kmh 29.84 in1010.5 mb 0.00 in0.0 mm 0.00 in0.0 mm 0.01 in0.3 mm
04:30 AM 30.4°F-0.9°C 25.0°F-3.9°C 80% 3.0 mph S4.8 kmh S 11.0 mph17.7 kmh 29.83 in1010.2 mb 0.00 in0.0 mm 0.00 in0.0 mm 0.01 in0.3 mm
04:35 AM 30.4°F-0.9°C 25.0°F-3.9°C 80% 5.0 mph SE8.0 kmh SE 8.0 mph12.9 kmh 29.83 in1010.2 mb 0.00 in0.0 mm 0.00 in0.0 mm 0.01 in0.3 mm
04:40 AM 30.4°F-0.9°C 25.0°F-3.9°C 80% 4.0 mph SE6.4 kmh SE 15.0 mph24.1 kmh 29.82 in1009.8 mb 0.00 in0.0 mm 0.00 in0.0 mm 0.01 in0.3 mm
04:45 AM 30.6°F-0.8°C 24.9°F-3.9°C 79% 9.0 mph SE14.5 kmh SE 20.0 mph32.2 kmh 29.82 in1009.8 mb 0.00 in0.0 mm 0.00 in0.0 mm 0.01 in0.3 mm
04:50 AM 30.6°F-0.8°C 24.9°F-3.9°C 79% 7.0 mph S11.3 kmh S 16.0 mph25.7 kmh 29.82 in1009.8 mb 0.00 in0.0 mm 0.00 in0.0 mm 0.01 in0.3 mm
04:55 AM 30.5°F-0.8°C 24.8°F-4.0°C 79% 3.0 mph E4.8 kmh E 16.0 mph25.7 kmh 29.82 in1009.8 mb 0.00 in0.0 mm 0.00 in0.0 mm 0.01 in0.3 mm
05:00 AM 30.5°F-0.8°C 24.8°F-4.0°C 79% 4.0 mph S6.4 kmh S 16.0 mph25.7 kmh 29.82 in1009.8 mb 0.00 in0.0 mm 0.00 in0.0 mm 0.01 in0.3 mm
05:05 AM 30.4°F-0.9°C 24.4°F-4.2°C 78% 9.0 mph S14.5 kmh S 15.0 mph24.1 kmh 29.82 in1009.8 mb 0.00 in0.0 mm 0.00 in0.0 mm 0.01 in0.3 mm
05:10 AM 30.2°F-1.0°C 24.2°F-4.3°C 78% 5.0 mph S8.0 kmh S 15.0 mph24.1 kmh 29.82 in1009.8 mb 0.00 in0.0 mm 0.00 in0.0 mm 0.01 in0.3 mm
05:15 AM 30.1°F-1.1°C 24.1°F-4.4°C 78% 4.0 mph S6.4 kmh S 15.0 mph24.1 kmh 29.82 in1009.8 mb 0.00 in0.0 mm 0.00 in0.0 mm 0.01 in0.3 mm
05:20 AM 30.1°F-1.1°C 24.1°F-4.4°C 78% 6.0 mph S9.7 kmh S 13.0 mph20.9 kmh 29.81 in1009.5 mb 0.00 in0.0 mm 0.00 in0.0 mm 0.01 in0.3 mm
05:25 AM 30.0°F-1.1°C 24.0°F-4.4°C 78% 8.0 mph SE12.9 kmh SE 13.0 mph20.9 kmh 29.81 in1009.5 mb 0.00 in0.0 mm 0.00 in0.0 mm 0.01 in0.3 mm
05:30 AM 30.0°F-1.1°C 24.0°F-4.4°C 78% 6.0 mph SE9.7 kmh SE 13.0 mph20.9 kmh 29.81 in1009.5 mb 0.00 in0.0 mm 0.00 in0.0 mm 0.01 in0.3 mm
05:35 AM 30.0°F-1.1°C 24.0°F-4.4°C 78% 4.0 mph SSE6.4 kmh SSE 12.0 mph19.3 kmh 29.81 in1009.5 mb 0.00 in0.0 mm 0.00 in0.0 mm 0.01 in0.3 mm
05:40 AM 30.0°F-1.1°C 24.0°F-4.4°C 78% 7.0 mph S11.3 kmh S 13.0 mph20.9 kmh 29.80 in1009.1 mb 0.00 in0.0 mm 0.00 in0.0 mm 0.01 in0.3 mm
05:45 AM 30.1°F-1.1°C 23.8°F-4.6°C 77% 7.0 mph S11.3 kmh S 15.0 mph24.1 kmh 29.80 in1009.1 mb 0.00 in0.0 mm 0.00 in0.0 mm 0.01 in0.3 mm
05:50 AM 30.2°F-1.0°C 23.9°F-4.5°C 77% 6.0 mph SE9.7 kmh SE 11.0 mph17.7 kmh 29.80 in1009.1 mb 0.00 in0.0 mm 0.00 in0.0 mm 0.01 in0.3 mm
05:55 AM 30.3°F-0.9°C 24.0°F-4.4°C 77% 14.0 mph SSE22.5 kmh SSE 14.0 mph22.5 kmh 29.79 in1008.8 mb 0.00 in0.0 mm 0.00 in0.0 mm 0.01 in0.3 mm
06:00 AM 30.4°F-0.9°C 23.8°F-4.6°C 76% 5.0 mph ESE8.0 kmh ESE 14.0 mph22.5 kmh 29.79 in1008.8 mb 0.00 in0.0 mm 0.00 in0.0 mm 0.01 in0.3 mm
06:05 AM 30.4°F-0.9°C 23.8°F-4.6°C 76% 6.0 mph SE9.7 kmh SE 16.0 mph25.7 kmh 29.78 in1008.5 mb 0.00 in0.0 mm 0.00 in0.0 mm 0.01 in0.3 mm
06:10 AM 30.5°F-0.8°C 23.9°F-4.5°C 76% 4.0 mph SE6.4 kmh SE 16.0 mph25.7 kmh 29.78 in1008.5 mb 0.00 in0.0 mm 0.00 in0.0 mm 0.01 in0.3 mm
06:15 AM 30.5°F-0.8°C 23.9°F-4.5°C 76% 5.0 mph SSE8.0 kmh SSE 16.0 mph25.7 kmh 29.78 in1008.5 mb 0.00 in0.0 mm 0.00 in0.0 mm 0.01 in0.3 mm
06:20 AM 30.4°F-0.9°C 23.4°F-4.8°C 75% 9.0 mph SSE14.5 kmh SSE 16.0 mph25.7 kmh 29.78 in1008.5 mb 0.00 in0.0 mm 0.00 in0.0 mm 0.01 in0.3 mm
06:25 AM 30.3°F-0.9°C 23.3°F-4.8°C 75% 8.0 mph SE12.9 kmh SE 16.0 mph25.7 kmh 29.78 in1008.5 mb 0.00 in0.0 mm 0.00 in0.0 mm 0.01 in0.3 mm
06:30 AM 30.2°F-1.0°C 23.6°F-4.7°C 76% 13.0 mph SE20.9 kmh SE 16.0 mph25.7 kmh 29.78 in1008.5 mb 0.00 in0.0 mm 0.00 in0.0 mm 0.01 in0.3 mm
06:35 AM 30.2°F-1.0°C 23.6°F-4.7°C 76% 4.0 mph SSE6.4 kmh SSE 14.0 mph22.5 kmh 29.78 in1008.5 mb 0.00 in0.0 mm 0.00 in0.0 mm 0.01 in0.3 mm
06:40 AM 30.2°F-1.0°C 23.6°F-4.7°C 76% 5.0 mph S8.0 kmh S 14.0 mph22.5 kmh 29.78 in1008.5 mb 0.00 in0.0 mm 0.00 in0.0 mm 0.01 in0.3 mm
06:45 AM 30.3°F-0.9°C 23.3°F-4.8°C 75% 6.0 mph SE9.7 kmh SE 14.0 mph22.5 kmh 29.77 in1008.1 mb 0.00 in0.0 mm 0.00 in0.0 mm 0.01 in0.3 mm
06:50 AM 30.3°F-0.9°C 23.3°F-4.8°C 75% 6.0 mph SE9.7 kmh SE 14.0 mph22.5 kmh 29.78 in1008.5 mb 0.00 in0.0 mm 0.00 in0.0 mm 0.01 in0.3 mm
06:55 AM 30.4°F-0.9°C 23.4°F-4.8°C 75% 7.0 mph S11.3 kmh S 14.0 mph22.5 kmh 29.78 in1008.5 mb 0.00 in0.0 mm 0.00 in0.0 mm 0.01 in0.3 mm
07:00 AM 30.6°F-0.8°C 23.3°F-4.8°C 74% 11.0 mph SSE17.7 kmh SSE 14.0 mph22.5 kmh 29.78 in1008.5 mb 0.00 in0.0 mm 0.00 in0.0 mm 0.01 in0.3 mm
07:05 AM 30.6°F-0.8°C 23.3°F-4.8°C 74% 7.0 mph SSE11.3 kmh SSE 14.0 mph22.5 kmh 29.78 in1008.5 mb 0.00 in0.0 mm 0.00 in0.0 mm 0.01 in0.3 mm
07:10 AM 30.7°F-0.7°C 23.1°F-4.9°C 73% 7.0 mph S11.3 kmh S 19.0 mph30.6 kmh 29.77 in1008.1 mb 0.00 in0.0 mm 0.00 in0.0 mm 0.01 in0.3 mm
07:15 AM 30.7°F-0.7°C 23.1°F-4.9°C 73% 4.0 mph SSE6.4 kmh SSE 19.0 mph30.6 kmh 29.77 in1008.1 mb 0.00 in0.0 mm 0.00 in0.0 mm 0.01 in0.3 mm
07:20 AM 30.7°F-0.7°C 23.1°F-4.9°C 73% 6.0 mph SSE9.7 kmh SSE 15.0 mph24.1 kmh 29.77 in1008.1 mb 0.00 in0.0 mm 0.00 in0.0 mm 0.01 in0.3 mm
07:25 AM 30.6°F-0.8°C 23.0°F-5.0°C 73% 16.0 mph SE25.7 kmh SE 16.0 mph25.7 kmh 29.77 in1008.1 mb 0.00 in0.0 mm 0.00 in0.0 mm 0.01 in0.3 mm
07:30 AM 30.7°F-0.7°C 23.1°F-4.9°C 73% 7.0 mph SE11.3 kmh SE 16.0 mph25.7 kmh 29.77 in1008.1 mb 0.00 in0.0 mm 0.00 in0.0 mm 0.01 in0.3 mm
07:35 AM 30.7°F-0.7°C 22.8°F-5.1°C 72% 8.0 mph S12.9 kmh S 12.0 mph19.3 kmh 29.76 in1007.8 mb 0.00 in0.0 mm 0.00 in0.0 mm 0.01 in0.3 mm
07:40 AM 30.4°F-0.9°C 22.8°F-5.1°C 73% 7.0 mph SSW11.3 kmh SSW 12.0 mph19.3 kmh 29.77 in1008.1 mb 0.00 in0.0 mm 0.00 in0.0 mm 0.01 in0.3 mm
07:45 AM 29.8°F-1.2°C 22.5°F-5.3°C 74% 9.0 mph S14.5 kmh S 12.0 mph19.3 kmh 29.77 in1008.1 mb 0.00 in0.0 mm 0.00 in0.0 mm 0.01 in0.3 mm
07:50 AM 29.5°F-1.4°C 22.3°F-5.4°C 74% 10.0 mph S16.1 kmh S 10.0 mph16.1 kmh 29.76 in1007.8 mb 0.00 in0.0 mm 0.00 in0.0 mm 0.01 in0.3 mm
07:55 AM 29.4°F-1.4°C 22.2°F-5.4°C 74% 5.0 mph S8.0 kmh S 11.0 mph17.7 kmh 29.76 in1007.8 mb 0.00 in0.0 mm 0.00 in0.0 mm 0.01 in0.3 mm
08:00 AM 29.6°F-1.3°C 22.4°F-5.3°C 74% 8.0 mph S12.9 kmh S 15.0 mph24.1 kmh 29.76 in1007.8 mb 0.00 in0.0 mm 0.00 in0.0 mm 0.01 in0.3 mm
08:05 AM 29.6°F-1.3°C 22.4°F-5.3°C 74% 9.0 mph SSE14.5 kmh SSE 13.0 mph20.9 kmh 29.76 in1007.8 mb 0.00 in0.0 mm 0.00 in0.0 mm 0.01 in0.3 mm
08:10 AM 29.6°F-1.3°C 22.4°F-5.3°C 74% 8.0 mph SSE12.9 kmh SSE 13.0 mph20.9 kmh 29.76 in1007.8 mb 0.00 in0.0 mm 0.00 in0.0 mm 0.01 in0.3 mm
08:15 AM 29.6°F-1.3°C 22.4°F-5.3°C 74% 4.0 mph S6.4 kmh S 15.0 mph24.1 kmh 29.76 in1007.8 mb 0.00 in0.0 mm 0.00 in0.0 mm 0.01 in0.3 mm
08:20 AM 29.5°F-1.4°C 22.3°F-5.4°C 74% 5.0 mph SE8.0 kmh SE 15.0 mph24.1 kmh 29.76 in1007.8 mb 0.00 in0.0 mm 0.00 in0.0 mm 0.01 in0.3 mm
08:25 AM 29.4°F-1.4°C 22.2°F-5.4°C 74% 7.0 mph S11.3 kmh S 15.0 mph24.1 kmh 29.75 in1007.5 mb 0.00 in0.0 mm 0.00 in0.0 mm 0.01 in0.3 mm
08:30 AM 29.4°F-1.4°C 22.5°F-5.3°C 75% 7.0 mph S11.3 kmh S 15.0 mph24.1 kmh 29.75 in1007.5 mb 0.00 in0.0 mm 0.00 in0.0 mm 0.01 in0.3 mm
08:35 AM 29.5°F-1.4°C 22.3°F-5.4°C 74% 7.0 mph SSW11.3 kmh SSW 13.0 mph20.9 kmh 29.75 in1007.5 mb 0.00 in0.0 mm 0.00 in0.0 mm 0.01 in0.3 mm
08:40 AM 29.6°F-1.3°C 22.4°F-5.3°C 74% 6.0 mph SSE9.7 kmh SSE 14.0 mph22.5 kmh 29.75 in1007.5 mb 0.00 in0.0 mm 0.00 in0.0 mm 0.01 in0.3 mm
08:45 AM 29.6°F-1.3°C 22.4°F-5.3°C 74% 9.0 mph SE14.5 kmh SE 14.0 mph22.5 kmh 29.75 in1007.5 mb 0.00 in0.0 mm 0.00 in0.0 mm 0.01 in0.3 mm
08:50 AM 29.7°F-1.3°C 22.4°F-5.3°C 74% 5.0 mph SE8.0 kmh SE 15.0 mph24.1 kmh 29.75 in1007.5 mb 0.00 in0.0 mm 0.00 in0.0 mm 0.01 in0.3 mm
08:55 AM 29.7°F-1.3°C 22.1°F-5.5°C 73% 3.0 mph SSE4.8 kmh SSE 15.0 mph24.1 kmh 29.75 in1007.5 mb 0.00 in0.0 mm 0.00 in0.0 mm 0.01 in0.3 mm
09:10 AM 30.2°F-1.0°C 22.3°F-5.4°C 72% 7.0 mph S11.3 kmh S 15.0 mph24.1 kmh 29.75 in1007.5 mb 0.00 in0.0 mm 0.00 in0.0 mm 0.01 in0.3 mm
09:15 AM 30.6°F-0.8°C 22.3°F-5.4°C 71% 6.0 mph SSE9.7 kmh SSE 15.0 mph24.1 kmh 29.75 in1007.5 mb 0.00 in0.0 mm 0.00 in0.0 mm 0.01 in0.3 mm
09:20 AM 31.3°F-0.4°C 22.3°F-5.4°C 69% 6.0 mph SE9.7 kmh SE 14.0 mph22.5 kmh 29.75 in1007.5 mb 0.00 in0.0 mm 0.00 in0.0 mm 0.01 in0.3 mm
09:25 AM 31.8°F-0.1°C 22.8°F-5.1°C 69% 6.0 mph SSE9.7 kmh SSE 24.0 mph38.6 kmh 29.74 in1007.1 mb 0.00 in0.0 mm 0.00 in0.0 mm 0.01 in0.3 mm
09:30 AM 32.1°F0.1°C 23.1°F-4.9°C 69% 8.0 mph SSE12.9 kmh SSE 24.0 mph38.6 kmh 29.74 in1007.1 mb 0.00 in0.0 mm 0.00 in0.0 mm 0.01 in0.3 mm
09:35 AM 32.3°F0.2°C 23.6°F-4.7°C 70% 17.0 mph ESE27.4 kmh ESE 19.0 mph30.6 kmh 29.75 in1007.5 mb 0.00 in0.0 mm 0.00 in0.0 mm 0.01 in0.3 mm
09:40 AM 32.3°F0.2°C 23.6°F-4.7°C 70% 12.0 mph SE19.3 kmh SE 21.0 mph33.8 kmh 29.75 in1007.5 mb 0.00 in0.0 mm 0.00 in0.0 mm 0.01 in0.3 mm
09:45 AM 32.3°F0.2°C 24.0°F-4.4°C 71% 12.0 mph SSE19.3 kmh SSE 21.0 mph33.8 kmh 29.75 in1007.5 mb 0.00 in0.0 mm 0.00 in0.0 mm 0.01 in0.3 mm
09:50 AM 32.3°F0.2°C 24.6°F-4.1°C 73% 13.0 mph ESE20.9 kmh ESE 24.0 mph38.6 kmh 29.75 in1007.5 mb 0.00 in0.0 mm 0.00 in0.0 mm 0.01 in0.3 mm
09:55 AM 32.1°F0.1°C 25.4°F-3.7°C 76% 12.0 mph SE19.3 kmh SE 24.0 mph38.6 kmh 29.75 in1007.5 mb 0.00 in0.0 mm 0.00 in0.0 mm 0.01 in0.3 mm
10:00 AM 32.1°F0.1°C 25.7°F-3.5°C 77% 17.0 mph SE27.4 kmh SE 24.0 mph38.6 kmh 29.75 in1007.5 mb 0.00 in0.0 mm 0.00 in0.0 mm 0.01 in0.3 mm
10:05 AM 32.0°F0.0°C 25.6°F-3.6°C 77% 16.0 mph SE25.7 kmh SE 21.0 mph33.8 kmh 29.75 in1007.5 mb 0.00 in0.0 mm 0.00 in0.0 mm 0.01 in0.3 mm
10:10 AM 31.9°F-0.1°C 25.5°F-3.6°C 77% 14.0 mph SE22.5 kmh SE 21.0 mph33.8 kmh 29.75 in1007.5 mb 0.00 in0.0 mm 0.00 in0.0 mm 0.01 in0.3 mm
10:15 AM 31.9°F-0.1°C 25.8°F-3.4°C 78% 14.0 mph E22.5 kmh E 22.0 mph35.4 kmh 29.75 in1007.5 mb 0.00 in0.0 mm 0.00 in0.0 mm 0.01 in0.3 mm
10:20 AM 31.9°F-0.1°C 26.1°F-3.3°C 79% 16.0 mph SE25.7 kmh SE 24.0 mph38.6 kmh 29.75 in1007.5 mb 0.00 in0.0 mm 0.00 in0.0 mm 0.01 in0.3 mm
10:25 AM 31.8°F-0.1°C 26.4°F-3.1°C 80% 10.0 mph SSE16.1 kmh SSE 24.0 mph38.6 kmh 29.75 in1007.5 mb 0.00 in0.0 mm 0.00 in0.0 mm 0.01 in0.3 mm
10:30 AM 31.7°F-0.2°C 26.6°F-3.0°C 81% 4.0 mph SE6.4 kmh SE 24.0 mph38.6 kmh 29.76 in1007.8 mb 0.00 in0.0 mm 0.00 in0.0 mm 0.01 in0.3 mm
10:35 AM 31.6°F-0.2°C 26.8°F-2.9°C 82% 12.0 mph SE19.3 kmh SE 21.0 mph33.8 kmh 29.76 in1007.8 mb 0.00 in0.0 mm 0.00 in0.0 mm 0.01 in0.3 mm
10:40 AM 31.4°F-0.3°C 26.8°F-2.9°C 83% 13.0 mph SE20.9 kmh SE 21.0 mph33.8 kmh 29.76 in1007.8 mb 0.00 in0.0 mm 0.00 in0.0 mm 0.01 in0.3 mm
10:45 AM 31.3°F-0.4°C 27.0°F-2.8°C 84% 18.0 mph SE29.0 kmh SE 23.0 mph37.0 kmh 29.76 in1007.8 mb 0.00 in0.0 mm 0.00 in0.0 mm 0.01 in0.3 mm
10:50 AM 31.1°F-0.5°C 26.8°F-2.9°C 84% 14.0 mph SSE22.5 kmh SSE 21.0 mph33.8 kmh 29.76 in1007.8 mb 0.00 in0.0 mm 0.00 in0.0 mm 0.01 in0.3 mm
10:55 AM 31.0°F-0.6°C 27.0°F-2.8°C 85% 12.0 mph ESE19.3 kmh ESE 21.0 mph33.8 kmh 29.76 in1007.8 mb 0.00 in0.0 mm 0.00 in0.0 mm 0.01 in0.3 mm
11:00 AM 30.8°F-0.7°C 27.1°F-2.7°C 86% 10.0 mph SE16.1 kmh SE 21.0 mph33.8 kmh 29.76 in1007.8 mb 0.00 in0.0 mm 0.00 in0.0 mm 0.01 in0.3 mm
11:05 AM 30.5°F-0.8°C 27.1°F-2.7°C 87% 9.0 mph SE14.5 kmh SE 21.0 mph33.8 kmh 29.75 in1007.5 mb 0.00 in0.0 mm 0.00 in0.0 mm 0.01 in0.3 mm
11:10 AM 30.3°F-0.9°C 27.2°F-2.7°C 88% 5.0 mph SE8.0 kmh SE 21.0 mph33.8 kmh 29.75 in1007.5 mb 0.00 in0.0 mm 0.00 in0.0 mm 0.01 in0.3 mm
11:15 AM 30.3°F-0.9°C 27.5°F-2.5°C 89% 11.0 mph E17.7 kmh E 21.0 mph33.8 kmh 29.75 in1007.5 mb 0.00 in0.0 mm 0.00 in0.0 mm 0.01 in0.3 mm
11:20 AM 30.2°F-1.0°C 27.6°F-2.4°C 90% 2.0 mph SE3.2 kmh SE 17.0 mph27.4 kmh 29.75 in1007.5 mb 0.00 in0.0 mm 0.00 in0.0 mm 0.01 in0.3 mm
11:25 AM 30.2°F-1.0°C 27.6°F-2.4°C 90% 8.0 mph SE12.9 kmh SE 17.0 mph27.4 kmh 29.75 in1007.5 mb 0.01 in0.3 mm 0.12 in3.0 mm 0.02 in0.5 mm
11:30 AM 30.3°F-0.9°C 28.0°F-2.2°C 91% 12.0 mph S19.3 kmh S 17.0 mph27.4 kmh 29.75 in1007.5 mb 0.01 in0.3 mm 0.00 in0.0 mm 0.02 in0.5 mm
11:35 AM 30.3°F-0.9°C 28.0°F-2.2°C 91% 8.0 mph SE12.9 kmh SE 18.0 mph29.0 kmh 29.75 in1007.5 mb 0.01 in0.3 mm 0.00 in0.0 mm 0.02 in0.5 mm
11:40 AM 30.4°F-0.9°C 28.1°F-2.2°C 91% 9.0 mph SE14.5 kmh SE 18.0 mph29.0 kmh 29.75 in1007.5 mb 0.01 in0.3 mm 0.00 in0.0 mm 0.02 in0.5 mm
11:45 AM 30.5°F-0.8°C 28.5°F-1.9°C 92% 7.0 mph SSE11.3 kmh SSE 18.0 mph29.0 kmh 29.75 in1007.5 mb 0.01 in0.3 mm 0.00 in0.0 mm 0.02 in0.5 mm
11:50 AM 30.7°F-0.7°C 28.4°F-2.0°C 91% 14.0 mph SSE22.5 kmh SSE 15.0 mph24.1 kmh 29.75 in1007.5 mb 0.01 in0.3 mm 0.00 in0.0 mm 0.02 in0.5 mm
11:55 AM 30.8°F-0.7°C 28.8°F-1.8°C 92% 8.0 mph SE12.9 kmh SE 18.0 mph29.0 kmh 29.75 in1007.5 mb 0.01 in0.3 mm 0.00 in0.0 mm 0.02 in0.5 mm
12:00 PM 30.9°F-0.6°C 28.9°F-1.7°C 92% 12.0 mph SE19.3 kmh SE 18.0 mph29.0 kmh 29.74 in1007.1 mb 0.02 in0.5 mm 0.01 in0.3 mm 0.03 in0.8 mm
12:05 PM 31.1°F-0.5°C 29.1°F-1.6°C 92% 6.0 mph SSE9.7 kmh SSE 12.0 mph19.3 kmh 29.74 in1007.1 mb 0.02 in0.5 mm 0.00 in0.0 mm 0.03 in0.8 mm
12:10 PM 31.2°F-0.4°C 29.2°F-1.6°C 92% 4.0 mph SE6.4 kmh SE 13.0 mph20.9 kmh 29.74 in1007.1 mb 0.02 in0.5 mm 0.00 in0.0 mm 0.03 in0.8 mm
12:15 PM 31.3°F-0.4°C 29.3°F-1.5°C 92% 8.0 mph SE12.9 kmh SE 13.0 mph20.9 kmh 29.74 in1007.1 mb 0.03 in0.8 mm 0.12 in3.0 mm 0.04 in1.0 mm
12:20 PM 31.4°F-0.3°C 29.4°F-1.4°C 92% 5.0 mph SSE8.0 kmh SSE 14.0 mph22.5 kmh 29.74 in1007.1 mb 0.03 in0.8 mm 0.00 in0.0 mm 0.04 in1.0 mm
12:25 PM 31.4°F-0.3°C 29.4°F-1.4°C 92% 8.0 mph SE12.9 kmh SE 14.0 mph22.5 kmh 29.74 in1007.1 mb 0.04 in1.0 mm 0.12 in3.0 mm 0.05 in1.3 mm
12:30 PM 31.5°F-0.3°C 29.2°F-1.6°C 91% 7.0 mph SE11.3 kmh SE 14.0 mph22.5 kmh 29.74 in1007.1 mb 0.04 in1.0 mm 0.00 in0.0 mm 0.05 in1.3 mm
12:35 PM 31.6°F-0.2°C 29.3°F-1.5°C 91% 5.0 mph SSE8.0 kmh SSE 14.0 mph22.5 kmh 29.74 in1007.1 mb 0.03 in0.8 mm 0.00 in0.0 mm 0.05 in1.3 mm
12:40 PM 31.6°F-0.2°C 29.3°F-1.5°C 91% 10.0 mph SE16.1 kmh SE 14.0 mph22.5 kmh 29.74 in1007.1 mb 0.03 in0.8 mm 0.00 in0.0 mm 0.05 in1.3 mm
12:45 PM 31.8°F-0.1°C 29.5°F-1.4°C 91% 10.0 mph S16.1 kmh S 14.0 mph22.5 kmh 29.74 in1007.1 mb 0.03 in0.8 mm 0.00 in0.0 mm 0.05 in1.3 mm
12:50 PM 32.0°F0.0°C 29.4°F-1.4°C 90% 10.0 mph SE16.1 kmh SE 11.0 mph17.7 kmh 29.73 in1006.8 mb 0.03 in0.8 mm 0.00 in0.0 mm 0.05 in1.3 mm
12:55 PM 32.3°F0.2°C 29.7°F-1.3°C 90% 8.0 mph SE12.9 kmh SE 14.0 mph22.5 kmh 29.73 in1006.8 mb 0.03 in0.8 mm 0.00 in0.0 mm 0.05 in1.3 mm
01:00 PM 32.6°F0.3°C 29.7°F-1.3°C 89% 6.0 mph ESE9.7 kmh ESE 14.0 mph22.5 kmh 29.73 in1006.8 mb 0.03 in0.8 mm 0.00 in0.0 mm 0.05 in1.3 mm
01:05 PM 32.8°F0.4°C 29.9°F-1.2°C 89% 11.0 mph SE17.7 kmh SE 17.0 mph27.4 kmh 29.73 in1006.8 mb 0.02 in0.5 mm 0.00 in0.0 mm 0.05 in1.3 mm
01:10 PM 33.1°F0.6°C 29.9°F-1.2°C 88% 15.0 mph SE24.1 kmh SE 17.0 mph27.4 kmh 29.72 in1006.4 mb 0.02 in0.5 mm 0.00 in0.0 mm 0.05 in1.3 mm
01:15 PM 33.5°F0.8°C 30.1°F-1.1°C 87% 12.0 mph SE19.3 kmh SE 19.0 mph30.6 kmh 29.72 in1006.4 mb 0.02 in0.5 mm 0.00 in0.0 mm 0.05 in1.3 mm
01:20 PM 33.8°F1.0°C 30.1°F-1.1°C 86% 12.0 mph SSE19.3 kmh SSE 19.0 mph30.6 kmh 29.72 in1006.4 mb 0.01 in0.3 mm 0.00 in0.0 mm 0.05 in1.3 mm
01:25 PM 34.1°F1.2°C 30.1°F-1.1°C 85% 11.0 mph SE17.7 kmh SE 19.0 mph30.6 kmh 29.72 in1006.4 mb 0.01 in0.3 mm 0.00 in0.0 mm 0.05 in1.3 mm
01:30 PM 34.4°F1.3°C 30.4°F-0.9°C 85% 13.0 mph SE20.9 kmh SE 19.0 mph30.6 kmh 29.71 in1006.1 mb 0.01 in0.3 mm 0.00 in0.0 mm 0.05 in1.3 mm
01:35 PM 34.8°F1.6°C 30.2°F-1.0°C 83% 15.0 mph SSE24.1 kmh SSE 20.0 mph32.2 kmh 29.71 in1006.1 mb 0.00 in0.0 mm 0.00 in0.0 mm 0.05 in1.3 mm
01:40 PM 35.1°F1.7°C 30.2°F-1.0°C 82% 18.0 mph S29.0 kmh S 22.0 mph35.4 kmh 29.71 in1006.1 mb 0.00 in0.0 mm 0.00 in0.0 mm 0.05 in1.3 mm
01:45 PM 35.3°F1.8°C 29.8°F-1.2°C 80% 10.0 mph S16.1 kmh S 24.0 mph38.6 kmh 29.71 in1006.1 mb 0.00 in0.0 mm 0.00 in0.0 mm 0.05 in1.3 mm
01:50 PM 35.3°F1.8°C 29.8°F-1.2°C 80% 7.0 mph SSE11.3 kmh SSE 21.0 mph33.8 kmh 29.70 in1005.8 mb 0.00 in0.0 mm 0.00 in0.0 mm 0.05 in1.3 mm
01:55 PM 35.4°F1.9°C 29.6°F-1.3°C 79% 15.0 mph SE24.1 kmh SE 21.0 mph33.8 kmh 29.70 in1005.8 mb 0.00 in0.0 mm 0.00 in0.0 mm 0.05 in1.3 mm
02:00 PM 35.4°F1.9°C 29.6°F-1.3°C 79% 10.0 mph ESE16.1 kmh ESE 21.0 mph33.8 kmh 29.70 in1005.8 mb 0.00 in0.0 mm 0.00 in0.0 mm 0.05 in1.3 mm
02:05 PM 35.4°F1.9°C 29.6°F-1.3°C 79% 14.0 mph SE22.5 kmh SE 17.0 mph27.4 kmh 29.70 in1005.8 mb 0.00 in0.0 mm 0.00 in0.0 mm 0.05 in1.3 mm
02:10 PM 35.6°F2.0°C 29.7°F-1.3°C 79% 22.0 mph SE35.4 kmh SE 22.0 mph35.4 kmh 29.69 in1005.4 mb 0.00 in0.0 mm 0.00 in0.0 mm 0.05 in1.3 mm
02:15 PM 35.7°F2.1°C 29.8°F-1.2°C 79% 12.0 mph SSE19.3 kmh SSE 22.0 mph35.4 kmh 29.69 in1005.4 mb 0.00 in0.0 mm 0.00 in0.0 mm 0.05 in1.3 mm
02:20 PM 35.7°F2.1°C 29.8°F-1.2°C 79% 13.0 mph SE20.9 kmh SE 21.0 mph33.8 kmh 29.69 in1005.4 mb 0.00 in0.0 mm 0.00 in0.0 mm 0.05 in1.3 mm
02:25 PM 35.8°F2.1°C 29.9°F-1.2°C 79% 15.0 mph SSE24.1 kmh SSE 21.0 mph33.8 kmh 29.69 in1005.4 mb 0.00 in0.0 mm 0.00 in0.0 mm 0.05 in1.3 mm
02:30 PM 35.9°F2.2°C 30.0°F-1.1°C 79% 10.0 mph SSE16.1 kmh SSE 23.0 mph37.0 kmh 29.69 in1005.4 mb 0.00 in0.0 mm 0.00 in0.0 mm 0.05 in1.3 mm
02:35 PM 36.1°F2.3°C 29.9°F-1.2°C 78% 9.0 mph SE14.5 kmh SE 21.0 mph33.8 kmh 29.68 in1005.1 mb 0.00 in0.0 mm 0.00 in0.0 mm 0.05 in1.3 mm
02:40 PM 36.2°F2.3°C 30.3°F-0.9°C 79% 22.0 mph SE35.4 kmh SE 22.0 mph35.4 kmh 29.68 in1005.1 mb 0.00 in0.0 mm 0.00 in0.0 mm 0.05 in1.3 mm
02:45 PM 36.3°F2.4°C 30.1°F-1.1°C 78% 10.0 mph SE16.1 kmh SE 22.0 mph35.4 kmh 29.68 in1005.1 mb 0.00 in0.0 mm 0.00 in0.0 mm 0.05 in1.3 mm
02:50 PM 36.3°F2.4°C 30.1°F-1.1°C 78% 19.0 mph SE30.6 kmh SE 19.0 mph30.6 kmh 29.68 in1005.1 mb 0.00 in0.0 mm 0.00 in0.0 mm 0.05 in1.3 mm
02:55 PM 36.6°F2.6°C 30.4°F-0.9°C 78% 6.0 mph ESE9.7 kmh ESE 19.0 mph30.6 kmh 29.68 in1005.1 mb 0.00 in0.0 mm 0.00 in0.0 mm 0.05 in1.3 mm
03:00 PM 36.6°F2.6°C 30.4°F-0.9°C 78% 14.0 mph SE22.5 kmh SE 20.0 mph32.2 kmh 29.67 in1004.7 mb 0.00 in0.0 mm 0.00 in0.0 mm 0.05 in1.3 mm
03:05 PM 36.7°F2.6°C 30.5°F-0.8°C 78% 9.0 mph SE14.5 kmh SE 20.0 mph32.2 kmh 29.67 in1004.7 mb 0.00 in0.0 mm 0.00 in0.0 mm 0.05 in1.3 mm
03:10 PM 36.8°F2.7°C 30.6°F-0.8°C 78% 9.0 mph ESE14.5 kmh ESE 21.0 mph33.8 kmh 29.67 in1004.7 mb 0.00 in0.0 mm 0.00 in0.0 mm 0.05 in1.3 mm
03:15 PM 36.9°F2.7°C 30.4°F-0.9°C 77% 11.0 mph E17.7 kmh E 21.0 mph33.8 kmh 29.67 in1004.7 mb 0.00 in0.0 mm 0.00 in0.0 mm 0.05 in1.3 mm
03:20 PM 37.0°F2.8°C 30.5°F-0.8°C 77% 11.0 mph ESE17.7 kmh ESE 18.0 mph29.0 kmh 29.67 in1004.7 mb 0.00 in0.0 mm 0.00 in0.0 mm 0.05 in1.3 mm
03:25 PM 37.1°F2.8°C 30.6°F-0.8°C 77% 8.0 mph SE12.9 kmh SE 18.0 mph29.0 kmh 29.66 in1004.4 mb 0.00 in0.0 mm 0.00 in0.0 mm 0.05 in1.3 mm
03:30 PM 37.2°F2.9°C 30.4°F-0.9°C 76% 7.0 mph SE11.3 kmh SE 20.0 mph32.2 kmh 29.66 in1004.4 mb 0.00 in0.0 mm 0.00 in0.0 mm 0.05 in1.3 mm
03:35 PM 37.2°F2.9°C 30.0°F-1.1°C 75% 10.0 mph SE16.1 kmh SE 19.0 mph30.6 kmh 29.66 in1004.4 mb 0.00 in0.0 mm 0.00 in0.0 mm 0.05 in1.3 mm
03:40 PM 37.3°F2.9°C 30.1°F-1.1°C 75% 10.0 mph ESE16.1 kmh ESE 22.0 mph35.4 kmh 29.66 in1004.4 mb 0.00 in0.0 mm 0.00 in0.0 mm 0.05 in1.3 mm
03:45 PM 37.4°F3.0°C 30.2°F-1.0°C 75% 10.0 mph S16.1 kmh S 22.0 mph35.4 kmh 29.66 in1004.4 mb 0.00 in0.0 mm 0.00 in0.0 mm 0.05 in1.3 mm
03:50 PM 37.5°F3.1°C 30.0°F-1.1°C 74% 9.0 mph SSE14.5 kmh SSE 19.0 mph30.6 kmh 29.66 in1004.4 mb 0.00 in0.0 mm 0.00 in0.0 mm 0.05 in1.3 mm
03:55 PM 37.5°F3.1°C 30.3°F-0.9°C 75% 10.0 mph SE16.1 kmh SE 19.0 mph30.6 kmh 29.66 in1004.4 mb 0.00 in0.0 mm 0.00 in0.0 mm 0.05 in1.3 mm
04:00 PM 37.5°F3.1°C 30.3°F-0.9°C 75% 12.0 mph SE19.3 kmh SE 19.0 mph30.6 kmh 29.66 in1004.4 mb 0.00 in0.0 mm 0.00 in0.0 mm 0.05 in1.3 mm
04:05 PM 37.6°F3.1°C 30.4°F-0.9°C 75% 12.0 mph SE19.3 kmh SE 15.0 mph24.1 kmh 29.65 in1004.1 mb 0.00 in0.0 mm 0.00 in0.0 mm 0.05 in1.3 mm
04:10 PM 37.6°F3.1°C 30.4°F-0.9°C 75% 5.0 mph SE8.0 kmh SE 15.0 mph24.1 kmh 29.65 in1004.1 mb 0.00 in0.0 mm 0.00 in0.0 mm 0.05 in1.3 mm
04:15 PM 37.6°F3.1°C 30.7°F-0.7°C 76% 7.0 mph SE11.3 kmh SE 15.0 mph24.1 kmh 29.65 in1004.1 mb 0.00 in0.0 mm 0.00 in0.0 mm 0.05 in1.3 mm
04:20 PM 37.6°F3.1°C 30.4°F-0.9°C 75% 7.0 mph ESE11.3 kmh ESE 18.0 mph29.0 kmh 29.65 in1004.1 mb 0.00 in0.0 mm 0.00 in0.0 mm 0.05 in1.3 mm
04:25 PM 37.6°F3.1°C 30.7°F-0.7°C 76% 8.0 mph SE12.9 kmh SE 18.0 mph29.0 kmh 29.65 in1004.1 mb 0.00 in0.0 mm 0.00 in0.0 mm 0.05 in1.3 mm
04:30 PM 37.6°F3.1°C 30.7°F-0.7°C 76% 9.0 mph SE14.5 kmh SE 18.0 mph29.0 kmh 29.65 in1004.1 mb 0.00 in0.0 mm 0.00 in0.0 mm 0.05 in1.3 mm
04:35 PM 37.5°F3.1°C 30.6°F-0.8°C 76% 4.0 mph SE6.4 kmh SE 14.0 mph22.5 kmh 29.65 in1004.1 mb 0.00 in0.0 mm 0.00 in0.0 mm 0.05 in1.3 mm
04:40 PM 37.4°F3.0°C 30.9°F-0.6°C 77% 4.0 mph SE6.4 kmh SE 14.0 mph22.5 kmh 29.65 in1004.1 mb 0.00 in0.0 mm 0.00 in0.0 mm 0.05 in1.3 mm
04:45 PM 37.5°F3.1°C 31.0°F-0.6°C 77% 11.0 mph ESE17.7 kmh ESE 15.0 mph24.1 kmh 29.64 in1003.7 mb 0.00 in0.0 mm 0.00 in0.0 mm 0.05 in1.3 mm
04:50 PM 37.5°F3.1°C 31.0°F-0.6°C 77% 6.0 mph ESE9.7 kmh ESE 13.0 mph20.9 kmh 29.64 in1003.7 mb 0.00 in0.0 mm 0.00 in0.0 mm 0.05 in1.3 mm
04:55 PM 37.5°F3.1°C 30.6°F-0.8°C 76% 13.0 mph SE20.9 kmh SE 17.0 mph27.4 kmh 29.64 in1003.7 mb 0.00 in0.0 mm 0.00 in0.0 mm 0.05 in1.3 mm
05:00 PM 37.4°F3.0°C 30.9°F-0.6°C 77% 5.0 mph SE8.0 kmh SE 17.0 mph27.4 kmh 29.64 in1003.7 mb 0.00 in0.0 mm 0.00 in0.0 mm 0.05 in1.3 mm
05:05 PM 37.4°F3.0°C 30.9°F-0.6°C 77% 5.0 mph SSE8.0 kmh SSE 15.0 mph24.1 kmh 29.64 in1003.7 mb 0.00 in0.0 mm 0.00 in0.0 mm 0.05 in1.3 mm
05:10 PM 37.4°F3.0°C 30.9°F-0.6°C 77% 3.0 mph SE4.8 kmh SE 15.0 mph24.1 kmh 29.64 in1003.7 mb 0.00 in0.0 mm 0.00 in0.0 mm 0.05 in1.3 mm
05:15 PM 37.5°F3.1°C 31.0°F-0.6°C 77% 10.0 mph SE16.1 kmh SE 15.0 mph24.1 kmh 29.63 in1003.4 mb 0.00 in0.0 mm 0.00 in0.0 mm 0.05 in1.3 mm
05:20 PM 37.7°F3.2°C 30.5°F-0.8°C 75% 12.0 mph SE19.3 kmh SE 15.0 mph24.1 kmh 29.64 in1003.7 mb 0.00 in0.0 mm 0.00 in0.0 mm 0.05 in1.3 mm
05:25 PM 37.8°F3.2°C 30.6°F-0.8°C 75% 7.0 mph SE11.3 kmh SE 15.0 mph24.1 kmh 29.63 in1003.4 mb 0.00 in0.0 mm 0.00 in0.0 mm 0.05 in1.3 mm
05:30 PM 37.9°F3.3°C 30.4°F-0.9°C 74% 7.0 mph SE11.3 kmh SE 15.0 mph24.1 kmh 29.63 in1003.4 mb 0.00 in0.0 mm 0.00 in0.0 mm 0.05 in1.3 mm
05:35 PM 38.1°F3.4°C 30.6°F-0.8°C 74% 4.0 mph ESE6.4 kmh ESE 15.0 mph24.1 kmh 29.63 in1003.4 mb 0.00 in0.0 mm 0.00 in0.0 mm 0.05 in1.3 mm
05:40 PM 38.2°F3.4°C 30.7°F-0.7°C 74% 5.0 mph SSE8.0 kmh SSE 15.0 mph24.1 kmh 29.63 in1003.4 mb 0.00 in0.0 mm 0.00 in0.0 mm 0.05 in1.3 mm
05:45 PM 38.3°F3.5°C 30.4°F-0.9°C 73% 14.0 mph SE22.5 kmh SE 17.0 mph27.4 kmh 29.63 in1003.4 mb 0.00 in0.0 mm 0.00 in0.0 mm 0.05 in1.3 mm
05:50 PM 38.4°F3.6°C 30.2°F-1.0°C 72% 11.0 mph SE17.7 kmh SE 20.0 mph32.2 kmh 29.63 in1003.4 mb 0.00 in0.0 mm 0.00 in0.0 mm 0.05 in1.3 mm
05:55 PM 38.4°F3.6°C 30.2°F-1.0°C 72% 7.0 mph SSE11.3 kmh SSE 20.0 mph32.2 kmh 29.63 in1003.4 mb 0.00 in0.0 mm 0.00 in0.0 mm 0.05 in1.3 mm
06:00 PM 38.4°F3.6°C 30.2°F-1.0°C 72% 7.0 mph SE11.3 kmh SE 20.0 mph32.2 kmh 29.62 in1003.0 mb 0.00 in0.0 mm 0.00 in0.0 mm 0.05 in1.3 mm
06:05 PM 38.4°F3.6°C 30.2°F-1.0°C 72% 7.0 mph ESE11.3 kmh ESE 17.0 mph27.4 kmh 29.62 in1003.0 mb 0.00 in0.0 mm 0.00 in0.0 mm 0.05 in1.3 mm
06:10 PM 38.3°F3.5°C 30.4°F-0.9°C 73% 2.0 mph SSE3.2 kmh SSE 17.0 mph27.4 kmh 29.61 in1002.7 mb 0.00 in0.0 mm 0.00 in0.0 mm 0.05 in1.3 mm
06:15 PM 38.0°F3.3°C 30.1°F-1.1°C 73% 5.0 mph ESE8.0 kmh ESE 17.0 mph27.4 kmh 29.61 in1002.7 mb 0.00 in0.0 mm 0.00 in0.0 mm 0.05 in1.3 mm
06:20 PM 37.8°F3.2°C 29.9°F-1.2°C 73% 6.0 mph SE9.7 kmh SE 17.0 mph27.4 kmh 29.60 in1002.4 mb 0.00 in0.0 mm 0.00 in0.0 mm 0.05 in1.3 mm
06:25 PM 37.7°F3.2°C 29.8°F-1.2°C 73% 13.0 mph ENE20.9 kmh ENE 17.0 mph27.4 kmh 29.60 in1002.4 mb 0.00 in0.0 mm 0.00 in0.0 mm 0.05 in1.3 mm
06:30 PM 37.6°F3.1°C 30.1°F-1.1°C 74% 5.0 mph E8.0 kmh E 17.0 mph27.4 kmh 29.60 in1002.4 mb 0.00 in0.0 mm 0.00 in0.0 mm 0.05 in1.3 mm
06:35 PM 37.5°F3.1°C 30.0°F-1.1°C 74% 6.0 mph ESE9.7 kmh ESE 15.0 mph24.1 kmh 29.60 in1002.4 mb 0.00 in0.0 mm 0.00 in0.0 mm 0.05 in1.3 mm
06:40 PM 37.3°F2.9°C 30.1°F-1.1°C 75% 9.0 mph E14.5 kmh E 18.0 mph29.0 kmh 29.60 in1002.4 mb 0.00 in0.0 mm 0.00 in0.0 mm 0.05 in1.3 mm
06:45 PM 37.0°F2.8°C 30.2°F-1.0°C 76% 8.0 mph SE12.9 kmh SE 18.0 mph29.0 kmh 29.60 in1002.4 mb 0.00 in0.0 mm 0.00 in0.0 mm 0.05 in1.3 mm
06:50 PM 36.9°F2.7°C 30.1°F-1.1°C 76% 4.0 mph SE6.4 kmh SE 16.0 mph25.7 kmh 29.60 in1002.4 mb 0.00 in0.0 mm 0.00 in0.0 mm 0.05 in1.3 mm
06:55 PM 36.7°F2.6°C 30.2°F-1.0°C 77% 8.0 mph SE12.9 kmh SE 16.0 mph25.7 kmh 29.60 in1002.4 mb 0.00 in0.0 mm 0.00 in0.0 mm 0.05 in1.3 mm
07:05 PM 36.5°F2.5°C 30.3°F-0.9°C 78% 13.0 mph SSE20.9 kmh SSE 16.0 mph25.7 kmh 29.60 in1002.4 mb 0.00 in0.0 mm 0.00 in0.0 mm 0.05 in1.3 mm
07:10 PM 36.4°F2.4°C 30.2°F-1.0°C 78% 6.0 mph ESE9.7 kmh ESE 16.0 mph25.7 kmh 29.60 in1002.4 mb 0.00 in0.0 mm 0.00 in0.0 mm 0.05 in1.3 mm
07:15 PM 36.3°F2.4°C 30.4°F-0.9°C 79% 10.0 mph E16.1 kmh E 16.0 mph25.7 kmh 29.60 in1002.4 mb 0.00 in0.0 mm 0.00 in0.0 mm 0.05 in1.3 mm
07:20 PM 36.3°F2.4°C 30.4°F-0.9°C 79% 4.0 mph ESE6.4 kmh ESE 14.0 mph22.5 kmh 29.60 in1002.4 mb 0.00 in0.0 mm 0.00 in0.0 mm 0.05 in1.3 mm
07:25 PM 36.3°F2.4°C 30.4°F-0.9°C 79% 5.0 mph SE8.0 kmh SE 14.0 mph22.5 kmh 29.61 in1002.7 mb 0.00 in0.0 mm 0.00 in0.0 mm 0.05 in1.3 mm
07:30 PM 36.3°F2.4°C 30.4°F-0.9°C 79% 7.0 mph SE11.3 kmh SE 14.0 mph22.5 kmh 29.60 in1002.4 mb 0.00 in0.0 mm 0.00 in0.0 mm 0.05 in1.3 mm
07:35 PM 36.4°F2.4°C 30.5°F-0.8°C 79% 7.0 mph S11.3 kmh S 12.0 mph19.3 kmh 29.60 in1002.4 mb 0.00 in0.0 mm 0.00 in0.0 mm 0.05 in1.3 mm
07:40 PM 36.4°F2.4°C 30.5°F-0.8°C 79% 11.0 mph ESE17.7 kmh ESE 16.0 mph25.7 kmh 29.60 in1002.4 mb 0.00 in0.0 mm 0.00 in0.0 mm 0.05 in1.3 mm
07:45 PM 36.5°F2.5°C 30.6°F-0.8°C 79% 4.0 mph SE6.4 kmh SE 16.0 mph25.7 kmh 29.60 in1002.4 mb 0.00 in0.0 mm 0.00 in0.0 mm 0.05 in1.3 mm
07:50 PM 36.6°F2.6°C 30.7°F-0.7°C 79% 5.0 mph E8.0 kmh E 13.0 mph20.9 kmh 29.59 in1002.0 mb 0.00 in0.0 mm 0.00 in0.0 mm 0.05 in1.3 mm
07:55 PM 36.7°F2.6°C 30.5°F-0.8°C 78% 6.0 mph SE9.7 kmh SE 17.0 mph27.4 kmh 29.59 in1002.0 mb 0.00 in0.0 mm 0.00 in0.0 mm 0.05 in1.3 mm
08:00 PM 37.0°F2.8°C 30.8°F-0.7°C 78% 7.0 mph SE11.3 kmh SE 17.0 mph27.4 kmh 29.59 in1002.0 mb 0.00 in0.0 mm 0.00 in0.0 mm 0.05 in1.3 mm
08:05 PM 37.2°F2.9°C 30.7°F-0.7°C 77% 6.0 mph SE9.7 kmh SE 13.0 mph20.9 kmh 29.59 in1002.0 mb 0.00 in0.0 mm 0.00 in0.0 mm 0.05 in1.3 mm
08:10 PM 37.2°F2.9°C 30.4°F-0.9°C 76% 4.0 mph SE6.4 kmh SE 13.0 mph20.9 kmh 29.58 in1001.7 mb 0.00 in0.0 mm 0.00 in0.0 mm 0.05 in1.3 mm
08:15 PM 37.2°F2.9°C 30.4°F-0.9°C 76% 10.0 mph ESE16.1 kmh ESE 14.0 mph22.5 kmh 29.59 in1002.0 mb 0.00 in0.0 mm 0.00 in0.0 mm 0.05 in1.3 mm
08:20 PM 37.3°F2.9°C 30.4°F-0.9°C 76% 11.0 mph ESE17.7 kmh ESE 17.0 mph27.4 kmh 29.59 in1002.0 mb 0.00 in0.0 mm 0.00 in0.0 mm 0.05 in1.3 mm
08:25 PM 37.2°F2.9°C 30.0°F-1.1°C 75% 12.0 mph SE19.3 kmh SE 17.0 mph27.4 kmh 29.59 in1002.0 mb 0.00 in0.0 mm 0.00 in0.0 mm 0.05 in1.3 mm
08:30 PM 37.2°F2.9°C 30.0°F-1.1°C 75% 11.0 mph ESE17.7 kmh ESE 17.0 mph27.4 kmh 29.59 in1002.0 mb 0.00 in0.0 mm 0.00 in0.0 mm 0.05 in1.3 mm
08:35 PM 37.2°F2.9°C 30.0°F-1.1°C 75% 8.0 mph E12.9 kmh E 16.0 mph25.7 kmh 29.58 in1001.7 mb 0.00 in0.0 mm 0.00 in0.0 mm 0.05 in1.3 mm
08:40 PM 37.3°F2.9°C 30.1°F-1.1°C 75% 1.0 mph SE1.6 kmh SE 16.0 mph25.7 kmh 29.58 in1001.7 mb 0.00 in0.0 mm 0.00 in0.0 mm 0.05 in1.3 mm
08:45 PM 37.4°F3.0°C 30.2°F-1.0°C 75% 6.0 mph SE9.7 kmh SE 16.0 mph25.7 kmh 29.58 in1001.7 mb 0.00 in0.0 mm 0.00 in0.0 mm 0.05 in1.3 mm
08:50 PM 37.5°F3.1°C 30.0°F-1.1°C 74% 4.0 mph SE6.4 kmh SE 12.0 mph19.3 kmh 29.58 in1001.7 mb 0.00 in0.0 mm 0.00 in0.0 mm 0.05 in1.3 mm
08:55 PM 37.5°F3.1°C 30.0°F-1.1°C 74% 10.0 mph ESE16.1 kmh ESE 19.0 mph30.6 kmh 29.58 in1001.7 mb 0.00 in0.0 mm 0.00 in0.0 mm 0.05 in1.3 mm
09:00 PM 37.5°F3.1°C 30.0°F-1.1°C 74% 3.0 mph SE4.8 kmh SE 19.0 mph30.6 kmh 29.58 in1001.7 mb 0.00 in0.0 mm 0.00 in0.0 mm 0.05 in1.3 mm
09:05 PM 37.6°F3.1°C 30.1°F-1.1°C 74% 4.0 mph SE6.4 kmh SE 12.0 mph19.3 kmh 29.58 in1001.7 mb 0.00 in0.0 mm 0.00 in0.0 mm 0.05 in1.3 mm
09:10 PM 37.6°F3.1°C 30.1°F-1.1°C 74% 3.0 mph SSE4.8 kmh SSE 16.0 mph25.7 kmh 29.58 in1001.7 mb 0.00 in0.0 mm 0.00 in0.0 mm 0.05 in1.3 mm